createdAt,value
2022-10-07T00:01:06.503Z,99371.94
2022-10-07T00:03:34.815Z,99369.91
2022-10-07T00:06:16.752Z,99368.03
2022-10-07T00:08:50.571Z,99367.63
2022-10-07T00:11:28.969Z,99364.31
2022-10-07T00:14:03.753Z,99364.31
2022-10-07T00:16:35.006Z,99370.72
2022-10-07T00:19:06.328Z,99368.66
2022-10-07T00:21:36.025Z,99363.31
2022-10-07T00:24:04.254Z,99365.38
2022-10-07T00:26:36.523Z,99366.38
2022-10-07T00:29:06.419Z,99361.06
2022-10-07T00:31:36.759Z,99347.28
2022-10-07T00:34:06.159Z,99351.34
2022-10-07T00:36:40.083Z,99353.59
2022-10-07T00:39:14.925Z,99338.78
2022-10-07T00:41:50.282Z,99344.97
2022-10-07T00:44:36.034Z,99337.97
2022-10-07T00:47:32.490Z,99336.94
2022-10-07T00:50:05.515Z,99326.22
2022-10-07T00:52:38.969Z,99333.63
2022-10-07T00:55:12.226Z,99326.41
2022-10-07T00:57:40.918Z,99320.66
2022-10-07T01:00:10.562Z,99320.66
2022-10-07T01:02:39.382Z,99325.19
2022-10-07T01:05:09.202Z,99315.06
2022-10-07T01:07:36.940Z,99312.00
2022-10-07T01:10:07.585Z,99314.06
2022-10-07T01:12:49.701Z,99304.16
2022-10-07T01:15:40.219Z,99303.75
2022-10-07T01:18:32.344Z,99305.19
2022-10-07T01:21:10.025Z,99309.50
2022-10-07T01:24:04.760Z,99295.09
2022-10-07T01:26:53.375Z,99292.63
2022-10-07T01:29:35.996Z,99290.75
2022-10-07T01:32:13.570Z,99284.41
2022-10-07T01:34:43.142Z,99285.22
2022-10-07T01:37:15.058Z,99292.22
2022-10-07T01:39:55.412Z,99275.72
2022-10-07T01:42:23.478Z,99280.66
2022-10-07T01:44:58.064Z,99270.56
2022-10-07T01:47:28.517Z,99273.47
2022-10-07T01:49:55.835Z,99268.75
2022-10-07T01:53:08.004Z,99267.31
2022-10-07T01:56:28.274Z,99258.81
2022-10-07T01:59:38.382Z,99264.53
2022-10-07T02:02:51.555Z,99253.88
2022-10-07T02:05:33.341Z,99257.56
2022-10-07T02:08:19.187Z,99250.94
2022-10-07T02:11:10.863Z,99247.59
2022-10-07T02:14:01.323Z,99239.38
2022-10-07T02:17:03.857Z,99245.22
2022-10-07T02:19:43.937Z,99240.41
2022-10-07T02:22:15.482Z,99237.00
2022-10-07T02:24:44.742Z,99234.97
2022-10-07T02:27:16.891Z,99228.72
2022-10-07T02:29:52.737Z,99237.25
2022-10-07T02:32:23.973Z,99236.44
2022-10-07T02:35:01.591Z,99226.31
2022-10-07T02:37:35.313Z,99228.41
2022-10-07T02:40:11.154Z,99221.31
2022-10-07T02:42:58.534Z,99216.72
2022-10-07T02:45:34.259Z,99216.84
2022-10-07T02:48:15.416Z,99214.94
2022-10-07T02:50:47.417Z,99213.53
2022-10-07T02:53:16.413Z,99208.78
2022-10-07T02:55:44.802Z,99211.66
2022-10-07T02:58:16.377Z,99207.09
2022-10-07T03:00:51.024Z,99199.53
2022-10-07T03:03:18.210Z,99199.09
2022-10-07T03:05:52.114Z,99199.03
2022-10-07T03:08:22.005Z,99198.69
2022-10-07T03:10:50.175Z,99198.28
2022-10-07T03:13:17.326Z,99201.03
2022-10-07T03:15:49.519Z,99197.28
2022-10-07T03:18:29.422Z,99187.63
2022-10-07T03:21:09.815Z,99192.47
2022-10-07T03:23:37.556Z,99186.56
2022-10-07T03:26:05.079Z,99196.28
2022-10-07T03:28:36.038Z,99188.16
2022-10-07T03:31:09.134Z,99188.81
2022-10-07T03:33:39.138Z,99179.50
2022-10-07T03:36:08.745Z,99176.41
2022-10-07T03:38:37.361Z,99176.06
2022-10-07T03:41:05.656Z,99168.84
2022-10-07T03:43:33.920Z,99176.38
2022-10-07T03:46:03.776Z,99169.63
2022-10-07T03:48:33.292Z,99176.06
2022-10-07T03:51:01.829Z,99175.84
2022-10-07T03:53:31.104Z,99171.25
2022-10-07T03:56:00.517Z,99172.91
2022-10-07T03:58:29.386Z,99160.13
2022-10-07T04:01:15.196Z,99159.03
2022-10-07T04:03:55.846Z,99162.66
2022-10-07T04:06:24.227Z,99159.16
2022-10-07T04:08:53.283Z,99158.72
2022-10-07T04:11:20.368Z,99156.31
2022-10-07T04:13:48.154Z,99149.53
2022-10-07T04:16:17.764Z,99148.47
2022-10-07T04:18:46.266Z,99154.66
2022-10-07T04:21:13.898Z,99149.00
2022-10-07T04:23:42.474Z,99143.44
2022-10-07T04:26:12.140Z,99146.09
2022-10-07T04:28:43.367Z,99140.81
2022-10-07T04:31:13.163Z,99137.56
2022-10-07T04:33:44.325Z,99129.91
2022-10-07T04:36:14.214Z,99139.28
2022-10-07T04:38:51.024Z,99133.66
2022-10-07T04:41:22.160Z,99141.50
2022-10-07T04:43:56.803Z,99133.03
2022-10-07T04:46:28.337Z,99136.16
2022-10-07T04:49:00.894Z,99132.84
2022-10-07T04:51:31.394Z,99131.41
2022-10-07T04:54:00.385Z,99133.22
2022-10-07T04:56:35.795Z,99127.47
2022-10-07T04:59:06.078Z,99127.41
2022-10-07T05:01:33.500Z,99126.59
2022-10-07T05:04:00.702Z,99129.06
2022-10-07T05:06:28.297Z,99129.25
2022-10-07T05:08:56.060Z,99121.69
2022-10-07T05:11:25.876Z,99119.84
2022-10-07T05:14:00.585Z,99125.38
2022-10-07T05:16:27.689Z,99123.75
2022-10-07T05:18:54.704Z,99122.75
2022-10-07T05:21:22.008Z,99120.97
2022-10-07T05:23:49.541Z,99117.84
2022-10-07T05:26:21.806Z,99122.63
2022-10-07T05:28:53.853Z,99116.84
2022-10-07T05:31:27.935Z,99124.44
2022-10-07T05:34:00.219Z,99122.81
2022-10-07T05:36:27.350Z,99120.78
2022-10-07T05:38:58.109Z,99116.66
2022-10-07T05:41:30.247Z,99114.75
2022-10-07T05:44:00.158Z,99118.22
2022-10-07T05:46:27.534Z,99120.13
2022-10-07T05:48:58.058Z,99114.09
2022-10-07T05:51:29.910Z,99121.34
2022-10-07T05:53:58.409Z,99115.81
2022-10-07T05:56:32.360Z,99108.81
2022-10-07T05:58:59.614Z,99108.81
2022-10-07T06:01:29.733Z,99105.25
2022-10-07T06:04:00.039Z,99101.34
2022-10-07T06:06:31.148Z,99109.19
2022-10-07T06:09:19.325Z,99104.22
2022-10-07T06:12:05.711Z,99091.53
2022-10-07T06:14:34.073Z,99100.41
2022-10-07T06:17:01.764Z,99091.81
2022-10-07T06:19:29.304Z,99094.19
2022-10-07T06:22:00.213Z,99092.22
2022-10-07T06:24:27.771Z,99093.22
2022-10-07T06:26:55.924Z,99093.09
2022-10-07T06:29:24.111Z,99092.38
2022-10-07T06:31:51.576Z,99097.56
2022-10-07T06:34:19.315Z,99094.09
2022-10-07T06:36:49.022Z,99097.72
2022-10-07T06:39:17.945Z,99098.53
2022-10-07T06:41:47.313Z,99103.44
2022-10-07T06:44:43.412Z,99094.34
2022-10-07T06:47:14.037Z,99099.75
2022-10-07T06:49:43.107Z,99099.97
2022-10-07T06:52:10.063Z,99098.03
2022-10-07T06:54:37.679Z,99093.53
2022-10-07T06:57:20.437Z,99097.84
2022-10-07T06:59:54.926Z,99099.31
2022-10-07T07:02:22.127Z,99103.84
2022-10-07T07:04:52.891Z,99103.09
2022-10-07T07:07:24.488Z,99108.28
2022-10-07T07:09:52.084Z,99101.56
2022-10-07T07:12:20.494Z,99102.78
2022-10-07T07:14:48.193Z,99113.09
2022-10-07T07:17:19.032Z,99102.66
2022-10-07T07:19:46.133Z,99109.50
2022-10-07T07:22:13.159Z,99101.44
2022-10-07T07:24:42.413Z,99107.16
2022-10-07T07:27:09.775Z,99094.66
2022-10-07T07:29:37.437Z,99102.09
2022-10-07T07:32:04.571Z,99105.19
2022-10-07T07:34:37.274Z,99098.06
2022-10-07T07:37:05.900Z,99106.38
2022-10-07T07:39:38.050Z,99097.56
2022-10-07T07:42:09.699Z,99094.16
2022-10-07T07:44:40.290Z,99091.97
2022-10-07T07:47:12.770Z,99089.50
2022-10-07T07:49:40.016Z,99091.16
2022-10-07T07:52:10.311Z,99087.03
2022-10-07T07:54:45.093Z,99081.81
2022-10-07T07:57:12.365Z,99082.47
2022-10-07T07:59:39.657Z,99086.66
2022-10-07T08:02:08.278Z,99083.31
2022-10-07T08:04:38.326Z,99084.28
2022-10-07T08:07:06.162Z,99083.91
2022-10-07T08:09:33.622Z,99080.66
2022-10-07T08:12:01.244Z,99083.63
2022-10-07T08:14:28.281Z,99084.09
2022-10-07T08:16:57.677Z,99076.03
2022-10-07T08:19:26.167Z,99078.06
2022-10-07T08:21:53.946Z,99072.00
2022-10-07T08:24:25.757Z,99071.84
2022-10-07T08:26:56.693Z,99069.19
2022-10-07T08:29:23.989Z,99072.53
2022-10-07T08:31:51.702Z,99069.84
2022-10-07T08:34:18.853Z,99063.72
2022-10-07T08:36:47.508Z,99056.00
2022-10-07T08:39:15.391Z,99058.84
2022-10-07T08:42:27.552Z,99067.31
2022-10-07T08:44:55.572Z,99052.38
2022-10-07T08:47:30.454Z,99046.41
2022-10-07T08:50:07.610Z,99053.69
2022-10-07T08:52:37.563Z,99046.53
2022-10-07T08:55:46.357Z,99059.09
2022-10-07T08:58:35.154Z,99045.78
2022-10-07T09:01:36.153Z,99039.50
2022-10-07T09:04:42.241Z,99034.38
2022-10-07T09:07:21.515Z,99034.00
2022-10-07T09:10:05.311Z,99028.94
2022-10-07T09:13:05.141Z,99022.31
2022-10-07T09:16:14.776Z,99020.25
2022-10-07T09:18:58.116Z,99034.41
2022-10-07T09:21:37.802Z,99024.84
2022-10-07T09:24:29.006Z,99009.41
2022-10-07T09:27:00.235Z,99010.72
2022-10-07T09:29:30.624Z,99015.13
2022-10-07T09:31:58.255Z,99003.94
2022-10-07T09:34:29.243Z,99003.09
2022-10-07T09:37:26.043Z,98996.41
2022-10-07T09:39:57.676Z,99001.22
2022-10-07T09:42:43.955Z,98998.31
2022-10-07T09:45:35.103Z,99000.41
2022-10-07T09:48:07.713Z,98999.03
2022-10-07T09:50:43.031Z,98997.91
2022-10-07T09:53:25.070Z,98992.44
2022-10-07T09:55:54.461Z,98987.19
2022-10-07T09:58:31.150Z,98983.91
2022-10-07T10:01:00.978Z,98992.72
2022-10-07T10:03:37.249Z,98980.75
2022-10-07T10:06:09.342Z,98983.06
2022-10-07T10:08:41.820Z,98983.00
2022-10-07T10:11:21.008Z,98973.50
2022-10-07T10:13:51.269Z,98970.19
2022-10-07T10:16:36.072Z,98972.56
2022-10-07T10:19:21.427Z,98968.59
2022-10-07T10:21:57.040Z,98970.97
2022-10-07T10:24:46.450Z,98958.94
2022-10-07T10:27:34.140Z,98968.38
2022-10-07T10:30:14.666Z,98956.69
2022-10-07T10:33:14.721Z,98953.53
2022-10-07T10:36:05.215Z,98946.16
2022-10-07T10:39:01.452Z,98954.47
2022-10-07T10:41:50.676Z,98945.53
2022-10-07T10:44:32.706Z,98944.19
2022-10-07T10:47:33.560Z,98935.94
2022-10-07T10:50:31.842Z,98936.75
2022-10-07T10:53:19.782Z,98933.00
2022-10-07T10:56:02.095Z,98928.75
2022-10-07T10:59:01.950Z,98919.13
2022-10-07T11:01:39.365Z,98916.66
2022-10-07T11:04:26.800Z,98915.47
2022-10-07T11:07:04.160Z,98899.47
2022-10-07T11:09:40.177Z,98910.38
2022-10-07T11:12:31.809Z,98901.72
2022-10-07T11:15:22.777Z,98898.53
2022-10-07T11:17:53.838Z,98893.63
2022-10-07T11:20:31.280Z,98892.44
2022-10-07T11:23:18.868Z,98894.03
2022-10-07T11:26:34.584Z,98888.22
2022-10-07T11:29:15.710Z,98879.63
2022-10-07T11:31:53.018Z,98867.75
2022-10-07T11:34:31.829Z,98878.59
2022-10-07T11:37:38.807Z,98867.69
2022-10-07T11:40:07.711Z,98859.09
2022-10-07T11:42:43.490Z,98844.75
2022-10-07T11:45:18.160Z,98852.06
2022-10-07T11:48:05.874Z,98841.31
2022-10-07T11:50:55.848Z,98848.72
2022-10-07T11:53:26.724Z,98848.78
2022-10-07T11:56:04.639Z,98838.84
2022-10-07T11:58:36.984Z,98833.25
2022-10-07T12:01:25.743Z,98827.06
2022-10-07T12:03:54.678Z,98834.00
2022-10-07T12:06:21.680Z,98826.88
2022-10-07T12:08:48.684Z,98827.53
2022-10-07T12:11:15.578Z,98822.69
2022-10-07T12:13:45.993Z,98816.44
2022-10-07T12:16:31.573Z,98810.94
2022-10-07T12:19:16.367Z,98802.28
2022-10-07T12:22:04.832Z,98799.81
2022-10-07T12:24:37.194Z,98804.28
2022-10-07T12:27:17.671Z,98802.59
2022-10-07T12:29:58.737Z,98801.66
2022-10-07T12:33:14.649Z,98788.38
2022-10-07T12:35:44.579Z,98794.31
2022-10-07T12:38:26.336Z,98785.38
2022-10-07T12:41:43.200Z,98778.44
2022-10-07T12:44:34.350Z,98778.25
2022-10-07T12:47:14.932Z,98775.97
2022-10-07T12:49:52.425Z,98774.72
2022-10-07T12:52:32.565Z,98771.91
2022-10-07T12:55:11.467Z,98760.97
2022-10-07T12:57:41.538Z,98757.00
2022-10-07T13:00:24.375Z,98765.56
2022-10-07T13:03:25.546Z,98756.66
2022-10-07T13:06:34.200Z,98765.06
2022-10-07T13:09:32.969Z,98754.31
2022-10-07T13:12:12.907Z,98754.25
2022-10-07T13:15:17.493Z,98754.28
2022-10-07T13:18:10.688Z,98743.97
2022-10-07T13:21:05.348Z,98747.28
2022-10-07T13:23:32.828Z,98738.34
2022-10-07T13:29:38.253Z,98739.72
2022-10-07T13:32:18.442Z,98720.84
2022-10-07T13:34:47.962Z,98729.53
2022-10-07T13:37:45.850Z,98719.13
2022-10-07T13:40:36.373Z,98709.56
2022-10-07T13:43:08.210Z,98703.16
2022-10-07T13:45:48.314Z,98700.44
2022-10-07T13:48:40.715Z,98698.84
2022-10-07T13:51:37.856Z,98701.53
2022-10-07T13:54:17.956Z,98693.94
2022-10-07T13:56:45.544Z,98699.38
2022-10-07T13:59:18.501Z,98704.31
2022-10-07T14:01:49.946Z,98694.75
2022-10-07T14:04:29.440Z,98696.25
2022-10-07T14:07:19.969Z,98700.13
2022-10-07T14:09:49.296Z,98688.19
2022-10-07T14:12:31.486Z,98682.50
2022-10-07T14:15:07.070Z,98679.41
2022-10-07T14:17:55.114Z,98673.53
2022-10-07T14:20:34.073Z,98667.19
2022-10-07T14:23:02.710Z,98668.09
2022-10-07T14:25:54.236Z,98666.47
2022-10-07T14:28:24.223Z,98665.88
2022-10-07T14:31:24.791Z,98658.97
2022-10-07T14:34:37.091Z,98651.06
2022-10-07T14:37:28.485Z,98658.59
2022-10-07T14:39:58.622Z,98651.84
2022-10-07T14:42:35.811Z,98651.59
2022-10-07T14:45:08.186Z,98651.28
2022-10-07T14:47:38.505Z,98647.59
2022-10-07T14:50:06.040Z,98653.41
2022-10-07T14:52:35.622Z,98653.13
2022-10-07T14:55:35.124Z,98642.25
2022-10-07T14:58:02.041Z,98638.94
2022-10-07T15:00:29.545Z,98635.22
2022-10-07T15:02:56.746Z,98629.66
2022-10-07T15:05:24.587Z,98635.94
2022-10-07T15:07:51.690Z,98621.31
2022-10-07T15:10:26.261Z,98618.28
2022-10-07T15:12:54.496Z,98613.38
2022-10-07T15:15:21.599Z,98617.66
2022-10-07T15:17:48.536Z,98621.00
2022-10-07T15:20:16.765Z,98617.53
2022-10-07T15:22:45.646Z,98623.47
2022-10-07T15:25:15.051Z,98612.31
2022-10-07T15:27:42.214Z,98619.41
2022-10-07T15:30:10.133Z,98621.97
2022-10-07T15:32:37.082Z,98617.34
2022-10-07T15:35:04.376Z,98611.44
2022-10-07T15:37:32.292Z,98617.09
2022-10-07T15:39:59.626Z,98604.22
2022-10-07T15:42:26.769Z,98606.13
2022-10-07T15:44:54.217Z,98609.81
2022-10-07T15:47:21.380Z,98606.91
2022-10-07T15:49:49.536Z,98600.25
2022-10-07T15:52:16.680Z,98594.56
2022-10-07T15:54:45.346Z,98596.44
2022-10-07T15:57:13.996Z,98608.44
2022-10-07T15:59:42.070Z,98607.75
2022-10-07T16:02:21.446Z,98603.19
2022-10-07T16:04:48.684Z,98601.50
2022-10-07T16:07:16.215Z,98596.69
2022-10-07T16:09:43.128Z,98600.22
2022-10-07T16:12:10.281Z,98595.81
2022-10-07T16:14:37.217Z,98606.66
2022-10-07T16:17:04.203Z,98602.63
2022-10-07T16:19:31.219Z,98599.69
2022-10-07T16:21:58.155Z,98595.34
2022-10-07T16:24:25.131Z,98601.41
2022-10-07T16:26:53.049Z,98598.41
2022-10-07T16:29:41.065Z,98592.19
2022-10-07T16:32:11.015Z,98595.44
2022-10-07T16:34:43.616Z,98587.31
2022-10-07T16:37:12.149Z,98593.69
2022-10-07T16:39:39.128Z,98594.22
2022-10-07T16:42:06.492Z,98593.38
2022-10-07T16:44:33.923Z,98587.53
2022-10-07T16:47:01.420Z,98589.53
2022-10-07T16:49:30.139Z,98585.44
2022-10-07T16:51:58.154Z,98591.56
2022-10-07T16:54:26.083Z,98585.31
2022-10-07T16:56:53.467Z,98591.47
2022-10-07T16:59:24.072Z,98580.69
2022-10-07T17:01:55.594Z,98577.97
2022-10-07T17:04:24.483Z,98582.38
2022-10-07T17:06:51.778Z,98580.28
2022-10-07T17:09:19.028Z,98593.66
2022-10-07T17:11:46.809Z,98586.06
2022-10-07T17:14:20.333Z,98586.69
2022-10-07T17:16:56.079Z,98590.94
2022-10-07T17:19:26.484Z,98587.59
2022-10-07T17:21:55.192Z,98593.25
2022-10-07T17:24:23.801Z,98589.91
2022-10-07T17:26:52.943Z,98587.94
2022-10-07T17:29:21.790Z,98588.28
2022-10-07T17:31:50.858Z,98591.34
2022-10-07T17:34:20.531Z,98579.16
2022-10-07T17:36:48.842Z,98579.41
2022-10-07T17:39:17.353Z,98586.06
2022-10-07T17:41:44.401Z,98590.22
2022-10-07T17:44:12.739Z,98592.97
2022-10-07T17:46:40.867Z,98590.28
2022-10-07T17:49:13.316Z,98589.44
2022-10-07T17:51:42.877Z,98598.72
2022-10-07T17:54:12.344Z,98592.25
2022-10-07T17:56:39.628Z,98601.44
2022-10-07T17:59:06.743Z,98597.13
2022-10-07T18:01:35.836Z,98594.56
2022-10-07T18:04:07.155Z,98594.56
2022-10-07T18:06:37.666Z,98592.50
2022-10-07T18:09:09.883Z,98583.16
2022-10-07T18:11:55.668Z,98581.34
2022-10-07T18:14:41.513Z,98591.13
2022-10-07T18:17:10.144Z,98593.09
2022-10-07T18:19:37.839Z,98579.44
2022-10-07T18:22:04.761Z,98587.88
2022-10-07T18:24:31.813Z,98584.94
2022-10-07T18:27:01.059Z,98587.88
2022-10-07T18:29:38.293Z,98574.50
2022-10-07T18:32:09.331Z,98570.81
2022-10-07T18:34:36.466Z,98567.34
2022-10-07T18:37:03.432Z,98575.88
2022-10-07T18:39:30.395Z,98580.44
2022-10-07T18:41:58.427Z,98569.28
2022-10-07T18:44:26.482Z,98582.25
2022-10-07T18:46:53.523Z,98576.16
2022-10-07T18:49:23.324Z,98579.06
2022-10-07T18:51:50.978Z,98572.41
2022-10-07T18:54:18.992Z,98565.84
2022-10-07T18:56:50.715Z,98567.16
2022-10-07T18:59:19.416Z,98561.13
2022-10-07T19:01:50.513Z,98559.50
2022-10-07T19:04:19.029Z,98563.56
2022-10-07T19:06:46.742Z,98566.50
2022-10-07T19:09:20.596Z,98567.16
2022-10-07T19:11:49.216Z,98569.94
2022-10-07T19:14:16.548Z,98570.28
2022-10-07T19:16:48.779Z,98568.97
2022-10-07T19:19:22.856Z,98563.91
2022-10-07T19:21:53.056Z,98570.75
2022-10-07T19:24:41.674Z,98574.31
2022-10-07T19:27:08.721Z,98569.94
2022-10-07T19:29:35.703Z,98566.25
2022-10-07T19:32:07.844Z,98566.50
2022-10-07T19:34:35.459Z,98555.16
2022-10-07T19:37:02.491Z,98563.09
2022-10-07T19:39:29.461Z,98561.97
2022-10-07T19:41:57.535Z,98562.38
2022-10-07T19:44:24.874Z,98568.94
2022-10-07T19:46:52.479Z,98570.75
2022-10-07T19:49:19.567Z,98561.84
2022-10-07T19:51:46.495Z,98565.03
2022-10-07T19:54:13.418Z,98574.97
2022-10-07T19:56:41.271Z,98565.16
2022-10-07T19:59:11.669Z,98569.19
2022-10-07T20:01:42.167Z,98563.91
2022-10-07T20:04:14.675Z,98565.03
2022-10-07T20:06:42.824Z,98567.97
2022-10-07T20:09:14.173Z,98571.22
2022-10-07T20:11:41.649Z,98565.22
2022-10-07T20:14:09.960Z,98560.47
2022-10-07T20:16:38.097Z,98564.63
2022-10-07T20:19:10.821Z,98564.78
2022-10-07T20:21:39.246Z,98557.06
2022-10-07T20:24:07.810Z,98559.75
2022-10-07T20:26:38.172Z,98555.41
2022-10-07T20:29:07.241Z,98558.59
2022-10-07T20:31:38.472Z,98564.06
2022-10-07T20:34:07.541Z,98564.13
2022-10-07T20:36:37.421Z,98553.16
2022-10-07T20:39:32.844Z,98559.19
2022-10-07T20:42:19.329Z,98555.41
2022-10-07T20:44:50.755Z,98552.38
2022-10-07T20:47:18.964Z,98561.47
2022-10-07T20:49:48.049Z,98563.31
2022-10-07T20:52:19.252Z,98558.72
2022-10-07T20:54:47.528Z,98552.75
2022-10-07T20:57:22.280Z,98562.66
2022-10-07T20:59:49.280Z,98551.69
2022-10-07T21:02:19.014Z,98546.78
2022-10-07T21:04:48.615Z,98541.03
2022-10-07T21:07:17.567Z,98540.81
2022-10-07T21:09:44.764Z,98535.19
2022-10-07T21:12:15.675Z,98538.78
2022-10-07T21:14:44.075Z,98536.00
2022-10-07T21:17:11.999Z,98536.59
2022-10-07T21:19:39.044Z,98533.69
2022-10-07T21:22:07.156Z,98529.25
2022-10-07T21:24:34.479Z,98527.47
2022-10-07T21:27:07.562Z,98526.91
2022-10-07T21:29:40.129Z,98529.78
2022-10-07T21:32:09.589Z,98521.25
2022-10-07T21:34:37.011Z,98525.19
2022-10-07T21:37:04.826Z,98521.09
2022-10-07T21:39:32.139Z,98511.00
2022-10-07T21:41:59.760Z,98511.91
2022-10-07T21:44:27.472Z,98519.31
2022-10-07T21:46:54.532Z,98516.38
2022-10-07T21:49:21.518Z,98518.97
2022-10-07T21:51:48.431Z,98520.78
2022-10-07T21:54:15.755Z,98519.25
2022-10-07T21:56:45.825Z,98516.88
2022-10-07T21:59:13.772Z,98508.25
2022-10-07T22:01:41.760Z,98505.06
2022-10-07T22:04:16.697Z,98504.63
2022-10-07T22:07:02.695Z,98506.94
2022-10-07T22:09:31.031Z,98504.28
2022-10-07T22:11:58.107Z,98503.34
2022-10-07T22:14:25.092Z,98510.41
2022-10-07T22:16:51.986Z,98507.16
2022-10-07T22:19:18.901Z,98497.56
2022-10-07T22:21:45.917Z,98505.03
2022-10-07T22:24:13.950Z,98496.06
2022-10-07T22:26:45.953Z,98490.81
2022-10-07T22:29:16.110Z,98489.88
2022-10-07T22:31:43.143Z,98495.66
2022-10-07T22:34:30.627Z,98496.41
2022-10-07T22:37:00.804Z,98487.47
2022-10-07T22:39:29.317Z,98490.81
2022-10-07T22:41:57.640Z,98488.84
2022-10-07T22:44:27.950Z,98487.16
2022-10-07T22:46:56.285Z,98481.53
2022-10-07T22:49:27.340Z,98480.56
2022-10-07T22:51:58.289Z,98484.81
2022-10-07T22:54:25.647Z,98479.53
2022-10-07T22:56:52.583Z,98484.63
2022-10-07T22:59:19.576Z,98483.59
2022-10-07T23:01:46.517Z,98482.97
2022-10-07T23:04:13.388Z,98474.97
2022-10-07T23:06:40.274Z,98472.84
2022-10-07T23:09:07.201Z,98469.56
2022-10-07T23:11:34.109Z,98470.22
2022-10-07T23:14:01.272Z,98480.00
2022-10-07T23:16:30.210Z,98481.09
2022-10-07T23:18:58.958Z,98479.00
2022-10-07T23:21:29.552Z,98488.06
2022-10-07T23:24:05.995Z,98484.22
2022-10-07T23:26:34.665Z,98481.25
2022-10-07T23:29:02.190Z,98482.06
2022-10-07T23:31:31.846Z,98485.97
2022-10-07T23:34:00.790Z,98482.47
2022-10-07T23:36:28.120Z,98479.41
2022-10-07T23:38:55.145Z,98480.88
2022-10-07T23:41:25.780Z,98471.22
2022-10-07T23:43:58.104Z,98468.88
2022-10-07T23:46:27.181Z,98474.75
2022-10-07T23:48:54.866Z,98484.63
2022-10-07T23:51:26.050Z,98482.34
2022-10-07T23:53:52.964Z,98471.72
2022-10-07T23:56:19.845Z,98471.63
2022-10-07T23:58:46.900Z,98469.50
